Time,TemperatureF,DewpointF,PressureIn,WindDirection,WindDirectionDegrees,WindSpeedMPH,WindSpeedGustMPH,Humidity,HourlyPrecipIn,Conditions,Clouds,dailyrainin,SoftwareType,DateUTC
2013-04-20 00:02:00,42.0,38.0,30.45,North,5,4.0,8.0,86,0.00,,,0.01,,2013-04-19 22:02:00,
2013-04-20 00:12:00,42.0,38.0,30.45,North,5,4.0,8.0,86,0.00,,,0.01,,2013-04-19 22:12:00,
2013-04-20 00:22:00,42.0,38.0,30.45,North,10,3.0,8.0,85,0.00,,,0.01,,2013-04-19 22:22:00,
2013-04-20 00:33:00,41.0,37.0,30.47,NNE,19,3.0,7.0,85,0.00,,,0.01,,2013-04-19 22:33:00,
2013-04-20 00:42:00,41.0,37.0,30.47,NNE,19,3.0,7.0,85,0.00,,,0.01,,2013-04-19 22:42:00,
2013-04-20 00:52:00,41.0,37.0,30.47,North,5,4.0,7.0,85,0.00,,,0.01,,2013-04-19 22:52:00,
2013-04-20 01:02:00,41.0,37.0,30.47,NNW,345,5.0,9.0,85,0.00,,,0.01,,2013-04-19 23:02:00,
2013-04-20 01:11:00,41.0,37.0,30.47,NNW,345,5.0,9.0,85,0.00,,,0.01,,2013-04-19 23:11:00,
2013-04-20 01:22:00,41.0,37.0,30.47,North,360,3.0,8.0,85,0.00,,,0.01,,2013-04-19 23:22:00,
2013-04-20 01:32:00,41.0,37.0,30.48,North,360,3.0,6.0,85,0.00,,,0.01,,2013-04-19 23:32:00,
2013-04-20 01:42:00,41.0,37.0,30.48,North,360,3.0,6.0,85,0.00,,,0.01,,2013-04-19 23:42:00,
2013-04-20 01:52:00,40.0,36.0,30.48,NNE,12,3.0,7.0,84,0.00,,,0.01,,2013-04-19 23:52:00,
2013-04-20 02:01:00,40.0,36.0,30.48,North,9,3.0,8.0,84,0.00,,,0.01,,2013-04-20 00:01:00,
2013-04-20 02:11:00,40.0,36.0,30.48,North,9,3.0,8.0,84,0.00,,,0.01,,2013-04-20 00:11:00,
2013-04-20 02:21:00,40.0,35.0,30.48,North,9,5.0,7.0,83,0.00,,,0.01,,2013-04-20 00:21:00,
2013-04-20 02:31:00,40.0,35.0,30.48,North,5,3.0,9.0,83,0.00,,,0.01,,2013-04-20 00:31:00,
2013-04-20 02:41:00,40.0,35.0,30.48,North,5,3.0,9.0,83,0.00,,,0.01,,2013-04-20 00:41:00,
2013-04-20 02:51:00,40.0,35.0,30.49,NNE,12,3.0,9.0,83,0.00,,,0.01,,2013-04-20 00:51:00,
2013-04-20 03:01:00,39.0,34.0,30.49,NNE,14,4.0,8.0,83,0.00,,,0.01,,2013-04-20 01:01:00,
2013-04-20 03:11:00,39.0,34.0,30.49,NNE,14,4.0,8.0,83,0.00,,,0.01,,2013-04-20 01:11:00,
2013-04-20 03:21:00,39.0,34.0,30.49,North,350,3.0,7.0,83,0.00,,,0.01,,2013-04-20 01:21:00,
2013-04-20 03:32:00,39.0,34.0,30.49,NNE,13,1.0,6.0,83,0.00,,,0.01,,2013-04-20 01:32:00,
2013-04-20 03:42:00,39.0,34.0,30.49,NNE,13,1.0,6.0,83,0.00,,,0.01,,2013-04-20 01:42:00,
2013-04-20 03:51:00,39.0,35.0,30.49,North,5,3.0,7.0,84,0.00,,,0.01,,2013-04-20 01:51:00,
2013-04-20 04:01:00,39.0,35.0,30.49,North,5,2.0,5.0,84,0.00,,,0.01,,2013-04-20 02:01:00,
2013-04-20 04:11:00,39.0,35.0,30.49,North,9,3.0,6.0,84,0.00,,,0.01,,2013-04-20 02:11:00,
2013-04-20 04:21:00,39.0,35.0,30.49,North,9,3.0,6.0,84,0.00,,,0.01,,2013-04-20 02:21:00,
2013-04-20 04:32:00,39.0,35.0,30.49,North,9,2.0,5.0,85,0.00,,,0.01,,2013-04-20 02:32:00,
2013-04-20 04:42:00,39.0,35.0,30.49,North,9,2.0,5.0,85,0.00,,,0.01,,2013-04-20 02:42:00,
2013-04-20 04:52:00,39.0,35.0,30.49,North,5,3.0,6.0,85,0.00,,,0.01,,2013-04-20 02:52:00,
2013-04-20 05:01:00,39.0,35.0,30.49,North,5,3.0,6.0,86,0.00,,,0.01,,2013-04-20 03:01:00,
2013-04-20 05:11:00,38.0,34.0,30.49,North,5,2.0,6.0,87,0.00,,,0.01,,2013-04-20 03:11:00,
2013-04-20 05:21:00,38.0,34.0,30.49,North,5,2.0,6.0,87,0.00,,,0.01,,2013-04-20 03:21:00,
2013-04-20 05:33:00,38.0,34.0,30.50,North,5,3.0,5.0,87,0.00,,,0.01,,2013-04-20 03:33:00,
2013-04-20 05:43:00,38.0,34.0,30.50,North,5,3.0,5.0,87,0.00,,,0.01,,2013-04-20 03:43:00,
2013-04-20 05:52:00,38.0,35.0,30.50,North,5,2.0,4.0,88,0.00,,,0.01,,2013-04-20 03:52:00,
2013-04-20 06:02:00,38.0,35.0,30.50,North,5,3.0,6.0,88,0.00,,,0.01,,2013-04-20 04:02:00,
2013-04-20 06:12:00,38.0,35.0,30.50,North,5,3.0,6.0,88,0.00,,,0.01,,2013-04-20 04:12:00,
2013-04-20 06:23:00,38.0,35.0,30.50,North,5,2.0,5.0,88,0.00,,,0.01,,2013-04-20 04:23:00,
2013-04-20 06:32:00,38.0,35.0,30.51,North,5,1.0,4.0,89,0.00,,,0.01,,2013-04-20 04:32:00,
2013-04-20 06:42:00,38.0,35.0,30.51,North,5,1.0,4.0,89,0.00,,,0.01,,2013-04-20 04:42:00,
2013-04-20 06:52:00,38.0,35.0,30.51,NNE,13,3.0,6.0,89,0.00,,,0.01,,2013-04-20 04:52:00,
2013-04-20 07:01:00,38.0,35.0,30.51,NNE,13,2.0,6.0,89,0.00,,,0.01,,2013-04-20 05:01:00,
2013-04-20 07:12:00,38.0,35.0,30.51,NNE,13,2.0,6.0,89,0.00,,,0.01,,2013-04-20 05:12:00,
2013-04-20 07:21:00,38.0,35.0,30.52,NNE,17,4.0,8.0,89,0.00,,,0.01,,2013-04-20 05:21:00,
2013-04-20 07:32:00,38.0,35.0,30.52,NNE,17,4.0,7.0,89,0.00,,,0.01,,2013-04-20 05:32:00,
2013-04-20 07:42:00,38.0,35.0,30.52,NNE,17,4.0,7.0,89,0.00,,,0.01,,2013-04-20 05:42:00,
2013-04-20 07:51:00,38.0,35.0,30.52,NNE,24,4.0,8.0,90,0.00,,,0.01,,2013-04-20 05:51:00,
2013-04-20 08:01:00,38.0,35.0,30.53,NNE,25,3.0,6.0,90,0.00,,,0.01,,2013-04-20 06:01:00,
2013-04-20 08:12:00,38.0,35.0,30.53,NNE,25,3.0,6.0,90,0.00,,,0.01,,2013-04-20 06:12:00,
2013-04-20 08:21:00,39.0,36.0,30.53,NNE,25,5.0,8.0,90,0.00,,,0.01,,2013-04-20 06:21:00,
2013-04-20 08:31:00,39.0,36.0,30.53,NNE,24,3.0,7.0,89,0.00,,,0.01,,2013-04-20 06:31:00,
2013-04-20 08:42:00,39.0,36.0,30.53,NNE,24,3.0,7.0,89,0.00,,,0.01,,2013-04-20 06:42:00,
2013-04-20 08:52:00,40.0,37.0,30.53,NNE,22,3.0,7.0,88,0.00,,,0.01,,2013-04-20 06:52:00,
2013-04-20 09:01:00,41.0,37.0,30.53,NE,39,3.0,7.0,86,0.00,,,0.01,,2013-04-20 07:01:00,
2013-04-20 09:11:00,41.0,37.0,30.53,NE,39,3.0,7.0,86,0.00,,,0.01,,2013-04-20 07:11:00,
2013-04-20 09:21:00,43.0,38.0,30.53,NE,45,3.0,5.0,82,0.00,,,0.01,,2013-04-20 07:21:00,
2013-04-20 09:31:00,43.0,37.0,30.52,NE,37,3.0,6.0,80,0.00,,,0.01,,2013-04-20 07:31:00,
2013-04-20 09:42:00,44.0,35.0,30.53,NE,35,7.0,15.0,71,0.00,,,0.01,,2013-04-20 07:42:00,
2013-04-20 09:52:00,44.0,35.0,30.53,NE,35,7.0,15.0,71,0.00,,,0.01,,2013-04-20 07:52:00,
2013-04-20 10:01:00,44.0,34.0,30.53,ENE,71,6.0,11.0,69,0.00,,,0.01,,2013-04-20 08:01:00,
2013-04-20 10:11:00,44.0,34.0,30.53,ENE,71,6.0,11.0,69,0.00,,,0.01,,2013-04-20 08:11:00,
2013-04-20 10:21:00,44.0,36.0,30.53,NE,40,5.0,11.0,72,0.00,,,0.01,,2013-04-20 08:21:00,
2013-04-20 10:31:00,44.0,34.0,30.53,NNE,21,7.0,16.0,67,0.00,,,0.01,,2013-04-20 08:31:00,
2013-04-20 10:42:00,44.0,34.0,30.53,NNE,21,7.0,16.0,67,0.00,,,0.01,,2013-04-20 08:42:00,
2013-04-20 10:51:00,44.0,33.0,30.53,NE,39,8.0,18.0,66,0.00,,,0.01,,2013-04-20 08:51:00,
2013-04-20 11:01:00,45.0,33.0,30.52,NNE,29,9.0,16.0,63,0.00,,,0.01,,2013-04-20 09:01:00,
2013-04-20 11:11:00,45.0,33.0,30.52,NNE,29,9.0,16.0,63,0.00,,,0.01,,2013-04-20 09:11:00,
2013-04-20 11:21:00,46.0,34.0,30.52,NNE,19,10.0,18.0,62,0.00,,,0.01,,2013-04-20 09:21:00,
2013-04-20 11:32:00,47.0,34.0,30.52,North,355,8.0,14.0,61,0.00,,,0.01,,2013-04-20 09:32:00,
2013-04-20 11:43:00,47.0,34.0,30.52,North,355,8.0,14.0,61,0.00,,,0.01,,2013-04-20 09:43:00,
2013-04-20 11:52:00,47.0,34.0,30.51,NE,34,10.0,21.0,60,0.00,,,0.01,,2013-04-20 09:52:00,
2013-04-20 12:02:00,48.0,34.0,30.51,NE,51,12.0,21.0,58,0.00,,,0.01,,2013-04-20 10:02:00,
2013-04-20 12:12:00,48.0,34.0,30.51,NE,51,12.0,21.0,58,0.00,,,0.01,,2013-04-20 10:12:00,
2013-04-20 12:23:00,48.0,33.0,30.51,ENE,68,11.0,20.0,56,0.00,,,0.01,,2013-04-20 10:23:00,
2013-04-20 12:33:00,48.0,33.0,30.50,East,86,13.0,25.0,56,0.00,,,0.01,,2013-04-20 10:33:00,
2013-04-20 12:42:00,48.0,33.0,30.50,East,86,13.0,25.0,56,0.00,,,0.01,,2013-04-20 10:42:00,
2013-04-20 12:52:00,49.0,34.0,30.50,NNE,30,5.0,19.0,57,0.00,,,0.01,,2013-04-20 10:52:00,
2013-04-20 13:02:00,49.0,34.0,30.50,NNE,12,9.0,17.0,55,0.00,,,0.01,,2013-04-20 11:02:00,
2013-04-20 13:12:00,50.0,34.0,30.49,North,9,6.0,16.0,55,0.00,,,0.01,,2013-04-20 11:12:00,
2013-04-20 13:22:00,50.0,34.0,30.49,North,9,6.0,16.0,55,0.00,,,0.01,,2013-04-20 11:22:00,
2013-04-20 13:31:00,50.0,34.0,30.49,ENE,57,8.0,17.0,53,0.00,,,0.01,,2013-04-20 11:31:00,
2013-04-20 13:42:00,50.0,34.0,30.49,ENE,57,8.0,17.0,53,0.00,,,0.01,,2013-04-20 11:42:00,
2013-04-20 13:52:00,49.0,33.0,30.49,North,11,7.0,18.0,54,0.00,,,0.01,,2013-04-20 11:52:00,
2013-04-20 14:02:00,50.0,34.0,30.49,NE,55,12.0,20.0,54,0.00,,,0.01,,2013-04-20 12:02:00,
2013-04-20 14:11:00,50.0,34.0,30.49,NE,55,12.0,20.0,54,0.00,,,0.01,,2013-04-20 12:11:00,
2013-04-20 14:22:00,50.0,34.0,30.49,NNE,14,14.0,22.0,53,0.00,,,0.01,,2013-04-20 12:22:00,
2013-04-20 14:32:00,50.0,35.0,30.48,NE,34,6.0,23.0,56,0.00,,,0.01,,2013-04-20 12:32:00,
2013-04-20 14:41:00,50.0,35.0,30.48,NE,34,6.0,23.0,56,0.00,,,0.01,,2013-04-20 12:41:00,
2013-04-20 14:51:00,50.0,34.0,30.48,ENE,60,9.0,19.0,55,0.00,,,0.01,,2013-04-20 12:51:00,
2013-04-20 15:02:00,51.0,34.0,30.47,NNE,17,13.0,21.0,52,0.00,,,0.01,,2013-04-20 13:02:00,
2013-04-20 15:11:00,51.0,34.0,30.47,NNE,17,13.0,21.0,52,0.00,,,0.01,,2013-04-20 13:11:00,
2013-04-20 15:21:00,51.0,34.0,30.47,East,80,10.0,21.0,52,0.00,,,0.01,,2013-04-20 13:21:00,
2013-04-20 15:31:00,51.0,34.0,30.46,North,5,11.0,18.0,52,0.00,,,0.01,,2013-04-20 13:31:00,
2013-04-20 15:41:00,51.0,34.0,30.46,North,5,11.0,18.0,52,0.00,,,0.01,,2013-04-20 13:41:00,
2013-04-20 15:52:00,51.0,34.0,30.46,NNE,31,12.0,23.0,51,0.00,,,0.01,,2013-04-20 13:52:00,
2013-04-20 16:02:00,51.0,34.0,30.45,NE,53,11.0,22.0,52,0.00,,,0.01,,2013-04-20 14:02:00,
2013-04-20 16:11:00,51.0,34.0,30.45,NE,53,11.0,22.0,52,0.00,,,0.01,,2013-04-20 14:11:00,
2013-04-20 16:21:00,52.0,33.0,30.45,ENE,57,10.0,19.0,48,0.00,,,0.00,,2013-04-20 14:21:00,
2013-04-20 16:31:00,51.0,32.0,30.44,ENE,76,11.0,22.0,48,0.00,,,0.00,,2013-04-20 14:31:00,
2013-04-20 16:42:00,51.0,32.0,30.44,ENE,76,11.0,22.0,48,0.00,,,0.00,,2013-04-20 14:42:00,
2013-04-20 16:51:00,52.0,33.0,30.44,ENE,67,8.0,17.0,49,0.00,,,0.00,,2013-04-20 14:51:00,
2013-04-20 17:01:00,52.0,33.0,30.43,ENE,61,9.0,20.0,48,0.00,,,0.00,,2013-04-20 15:01:00,
2013-04-20 17:11:00,52.0,33.0,30.43,ENE,61,9.0,20.0,48,0.00,,,0.00,,2013-04-20 15:11:00,
2013-04-20 17:21:00,52.0,33.0,30.43,NE,39,11.0,18.0,48,0.00,,,0.00,,2013-04-20 15:21:00,
2013-04-20 17:33:00,52.0,33.0,30.42,NE,52,9.0,17.0,48,0.00,,,0.00,,2013-04-20 15:33:00,
2013-04-20 17:43:00,52.0,33.0,30.42,NE,52,9.0,17.0,48,0.00,,,0.00,,2013-04-20 15:43:00,
2013-04-20 17:53:00,52.0,33.0,30.42,NE,42,12.0,19.0,48,0.00,,,0.00,,2013-04-20 15:53:00,
2013-04-20 18:03:00,52.0,33.0,30.41,North,355,7.0,19.0,49,0.00,,,0.00,,2013-04-20 16:03:00,
2013-04-20 18:12:00,52.0,33.0,30.41,NE,44,9.0,16.0,48,0.00,,,0.00,,2013-04-20 16:12:00,
2013-04-20 18:23:00,52.0,33.0,30.41,NE,44,9.0,16.0,48,0.00,,,0.00,,2013-04-20 16:23:00,
2013-04-20 18:32:00,52.0,33.0,30.40,NNE,30,7.0,16.0,49,0.00,,,0.00,,2013-04-20 16:32:00,
2013-04-20 18:41:00,52.0,33.0,30.40,NNE,30,7.0,16.0,49,0.00,,,0.00,,2013-04-20 16:41:00,
2013-04-20 18:52:00,52.0,33.0,30.40,East,80,10.0,18.0,49,0.00,,,0.00,,2013-04-20 16:52:00,
2013-04-20 19:02:00,51.0,33.0,30.39,ENE,71,9.0,16.0,50,0.00,,,0.00,,2013-04-20 17:02:00,
2013-04-20 19:11:00,51.0,33.0,30.39,ENE,71,9.0,16.0,50,0.00,,,0.00,,2013-04-20 17:11:00,
2013-04-20 19:22:00,51.0,33.0,30.40,ENE,64,12.0,19.0,50,0.00,,,0.00,,2013-04-20 17:22:00,
2013-04-20 19:32:00,51.0,34.0,30.39,NNE,31,10.0,17.0,51,0.00,,,0.00,,2013-04-20 17:32:00,
2013-04-20 19:41:00,51.0,34.0,30.39,NNE,31,10.0,17.0,51,0.00,,,0.00,,2013-04-20 17:41:00,
2013-04-20 19:52:00,51.0,34.0,30.39,NE,46,8.0,17.0,52,0.00,,,0.00,,2013-04-20 17:52:00,
2013-04-20 20:02:00,50.0,34.0,30.38,NNE,26,9.0,19.0,53,0.00,,,0.00,,2013-04-20 18:02:00,
2013-04-20 20:12:00,50.0,34.0,30.38,NE,38,10.0,17.0,53,0.00,,,0.00,,2013-04-20 18:12:00,
2013-04-20 20:22:00,50.0,34.0,30.38,NE,38,10.0,17.0,53,0.00,,,0.00,,2013-04-20 18:22:00,
2013-04-20 20:32:00,49.0,34.0,30.39,North,360,4.0,16.0,55,0.00,,,0.00,,2013-04-20 18:32:00,
2013-04-20 20:41:00,49.0,34.0,30.39,North,360,4.0,16.0,55,0.00,,,0.00,,2013-04-20 18:41:00,
2013-04-20 20:52:00,49.0,34.0,30.38,NE,46,7.0,16.0,56,0.00,,,0.00,,2013-04-20 18:52:00,
2013-04-20 21:01:00,48.0,34.0,30.39,NNW,331,5.0,12.0,58,0.00,,,0.00,,2013-04-20 19:01:00,
2013-04-20 21:11:00,48.0,36.0,30.39,NNE,30,6.0,12.0,62,0.00,,,0.00,,2013-04-20 19:11:00,
2013-04-20 21:21:00,48.0,36.0,30.39,NNE,30,6.0,12.0,62,0.00,,,0.00,,2013-04-20 19:21:00,
2013-04-20 21:31:00,47.0,35.0,30.39,NE,42,4.0,14.0,64,0.00,,,0.00,,2013-04-20 19:31:00,
2013-04-20 21:41:00,47.0,35.0,30.39,ENE,59,5.0,10.0,64,0.00,,,0.00,,2013-04-20 19:41:00,
2013-04-20 21:52:00,47.0,35.0,30.39,ENE,59,5.0,10.0,64,0.00,,,0.00,,2013-04-20 19:52:00,
2013-04-20 22:02:00,46.0,35.0,30.39,NNE,28,4.0,9.0,65,0.00,,,0.00,,2013-04-20 20:02:00,
2013-04-20 22:11:00,46.0,35.0,30.39,NNE,25,4.0,9.0,66,0.00,,,0.00,,2013-04-20 20:11:00,
2013-04-20 22:21:00,46.0,35.0,30.39,NNE,25,4.0,9.0,66,0.00,,,0.00,,2013-04-20 20:21:00,
2013-04-20 22:32:00,45.0,35.0,30.39,NNE,12,5.0,8.0,68,0.00,,,0.00,,2013-04-20 20:32:00,
2013-04-20 22:42:00,45.0,35.0,30.39,NNE,12,5.0,8.0,68,0.00,,,0.00,,2013-04-20 20:42:00,
2013-04-20 22:51:00,44.0,35.0,30.39,NNE,18,4.0,10.0,71,0.00,,,0.00,,2013-04-20 20:51:00,
2013-04-20 23:01:00,44.0,36.0,30.39,North,5,4.0,10.0,72,0.00,,,0.00,,2013-04-20 21:01:00,
2013-04-20 23:12:00,44.0,36.0,30.39,North,5,4.0,10.0,72,0.00,,,0.00,,2013-04-20 21:12:00,
2013-04-20 23:21:00,44.0,36.0,30.38,NNE,16,3.0,8.0,73,0.00,,,0.00,,2013-04-20 21:21:00,
2013-04-20 23:32:00,43.0,35.0,30.38,NNE,28,6.0,9.0,73,0.00,,,0.00,,2013-04-20 21:32:00,
2013-04-20 23:42:00,43.0,35.0,30.38,NNE,28,6.0,9.0,73,0.00,,,0.00,,2013-04-20 21:42:00,
2013-04-20 23:52:00,43.0,35.0,30.38,NE,34,5.0,9.0,74,0.00,,,0.00,,2013-04-20 21:52:00,